createdAt,value
2022-09-06T00:00:15.097Z,67.95
2022-09-06T00:03:30.553Z,66.95
2022-09-06T00:06:33.178Z,67.29
2022-09-06T00:09:35.875Z,68.33
2022-09-06T00:12:38.437Z,68.11
2022-09-06T00:15:41.155Z,67.66
2022-09-06T00:18:44.333Z,67.80
2022-09-06T00:21:46.868Z,68.40
2022-09-06T00:24:49.508Z,68.37
2022-09-06T00:27:55.117Z,67.85
2022-09-06T00:30:57.746Z,68.65
2022-09-06T00:34:00.384Z,67.46
2022-09-06T00:37:03.183Z,68.99
2022-09-06T00:40:07.302Z,68.43
2022-09-06T00:43:09.972Z,68.50
2022-09-06T00:46:15.440Z,69.12
2022-09-06T00:49:23.798Z,68.58
2022-09-06T00:52:27.083Z,69.19
2022-09-06T00:55:29.614Z,68.52
2022-09-06T00:58:32.328Z,68.98
2022-09-06T01:01:35.347Z,69.44
2022-09-06T01:04:38.929Z,69.53
2022-09-06T01:07:51.326Z,69.63
2022-09-06T01:11:14.789Z,69.05
2022-09-06T01:14:22.025Z,68.79
2022-09-06T01:17:32.412Z,69.01
2022-09-06T01:20:45.305Z,69.09
2022-09-06T01:24:08.480Z,69.45
2022-09-06T01:27:34.604Z,69.59
2022-09-06T01:30:41.534Z,69.54
2022-09-06T01:33:48.406Z,70.58
2022-09-06T01:37:08.959Z,69.65
2022-09-06T01:40:12.834Z,69.63
2022-09-06T01:43:20.412Z,70.50
2022-09-06T01:46:27.397Z,70.37
2022-09-06T01:49:41.706Z,70.05
2022-09-06T01:52:50.311Z,70.31
2022-09-06T01:55:58.102Z,71.66
2022-09-06T01:59:11.552Z,70.87
2022-09-06T02:02:19.020Z,70.89
2022-09-06T02:05:26.011Z,71.34
2022-09-06T02:08:31.057Z,71.86
2022-09-06T02:11:37.806Z,72.52
2022-09-06T02:14:43.605Z,71.86
2022-09-06T02:17:50.218Z,71.89
2022-09-06T02:20:54.852Z,72.85
2022-09-06T02:23:59.068Z,72.52
2022-09-06T02:27:01.800Z,72.74
2022-09-06T02:30:05.281Z,72.93
2022-09-06T02:33:10.706Z,72.58
2022-09-06T02:36:14.029Z,74.00
2022-09-06T02:39:16.605Z,73.40
2022-09-06T02:42:19.369Z,74.23
2022-09-06T02:45:21.897Z,74.34
2022-09-06T02:48:24.858Z,74.78
2022-09-06T02:51:27.502Z,74.86
2022-09-06T02:54:30.711Z,75.18
2022-09-06T02:57:33.236Z,75.49
2022-09-06T03:00:36.856Z,75.09
2022-09-06T03:03:39.525Z,75.90
2022-09-06T03:06:42.217Z,76.23
2022-09-06T03:09:44.782Z,76.52
2022-09-06T03:12:47.621Z,76.69
2022-09-06T03:15:51.404Z,76.90
2022-09-06T03:18:53.956Z,76.45
2022-09-06T03:21:56.627Z,76.40
2022-09-06T03:24:59.156Z,76.87
2022-09-06T03:28:02.212Z,76.79
2022-09-06T03:31:04.943Z,77.05
2022-09-06T03:34:10.995Z,77.83
2022-09-06T03:37:13.830Z,78.87
2022-09-06T03:40:16.455Z,78.59
2022-09-06T03:43:20.091Z,77.39
2022-09-06T03:46:22.870Z,77.72
2022-09-06T03:49:25.435Z,78.25
2022-09-06T03:52:28.019Z,79.62
2022-09-06T03:55:30.863Z,78.58
2022-09-06T03:58:33.462Z,79.04
2022-09-06T04:01:36.172Z,79.02
2022-09-06T04:04:38.732Z,79.48
2022-09-06T04:07:42.449Z,79.31
2022-09-06T04:10:44.993Z,79.72
2022-09-06T04:13:48.151Z,79.91
2022-09-06T04:16:50.729Z,79.64
2022-09-06T04:19:53.357Z,80.26
2022-09-06T04:22:55.866Z,79.83
2022-09-06T04:25:58.985Z,80.19
2022-09-06T04:29:01.716Z,80.29
2022-09-06T04:32:04.305Z,80.30
2022-09-06T04:35:08.370Z,80.09
2022-09-06T04:38:11.020Z,80.84
2022-09-06T04:41:15.308Z,79.95
2022-09-06T04:44:18.418Z,79.54
2022-09-06T04:47:20.978Z,79.44
2022-09-06T04:50:23.523Z,79.16
2022-09-06T04:53:26.175Z,78.35
2022-09-06T04:56:29.588Z,79.03
2022-09-06T04:59:32.538Z,77.66
2022-09-06T05:02:35.117Z,77.42
2022-09-06T05:05:37.876Z,77.10
2022-09-06T05:08:41.020Z,76.16
2022-09-06T05:11:43.747Z,75.62
2022-09-06T05:14:46.339Z,75.99
2022-09-06T05:17:49.165Z,75.02
2022-09-06T05:20:52.551Z,74.48
2022-09-06T05:23:58.465Z,73.66
2022-09-06T05:27:03.794Z,73.23
2022-09-06T05:30:07.415Z,73.38
2022-09-06T05:33:10.374Z,72.49
2022-09-06T05:36:12.940Z,72.96
2022-09-06T05:39:15.479Z,72.04
2022-09-06T05:42:19.412Z,71.88
2022-09-06T05:45:22.398Z,71.47
2022-09-06T05:48:25.214Z,71.09
2022-09-06T05:51:27.919Z,69.69
2022-09-06T05:54:30.513Z,69.98
2022-09-06T05:57:33.142Z,68.68
2022-09-06T06:00:36.265Z,68.14
2022-09-06T06:03:38.963Z,67.33
2022-09-06T06:06:41.617Z,67.85
2022-09-06T06:09:44.218Z,67.64
2022-09-06T06:12:46.744Z,66.36
2022-09-06T06:15:49.492Z,65.40
2022-09-06T06:18:52.854Z,66.39
2022-09-06T06:21:57.897Z,65.68
2022-09-06T06:25:00.439Z,64.46
2022-09-06T06:28:03.515Z,64.47
2022-09-06T06:31:06.905Z,64.44
2022-09-06T06:34:09.506Z,63.99
2022-09-06T06:37:15.477Z,64.04
2022-09-06T06:40:25.079Z,62.22
2022-09-06T06:43:35.615Z,61.76
2022-09-06T06:46:38.330Z,62.62
2022-09-06T06:49:40.982Z,61.53
2022-09-06T06:52:43.595Z,61.32
2022-09-06T06:55:47.860Z,61.51
2022-09-06T06:58:52.050Z,61.73
2022-09-06T07:08:41.000Z,59.46
2022-09-06T07:11:43.683Z,59.79
2022-09-06T07:14:46.348Z,59.88
2022-09-06T07:17:48.920Z,57.50
2022-09-06T07:24:14.301Z,56.78
2022-09-06T07:30:39.498Z,55.46
2022-09-06T07:33:42.068Z,55.69
2022-09-06T07:36:44.611Z,54.44
2022-09-06T07:39:47.530Z,53.85
2022-09-06T07:42:50.271Z,52.13
2022-09-06T07:46:03.165Z,52.59
2022-09-06T07:49:06.098Z,51.79
2022-09-06T07:55:31.215Z,51.02
2022-09-06T07:58:34.105Z,50.00
2022-09-06T08:01:37.097Z,49.17
2022-09-06T08:04:40.534Z,48.89
2022-09-06T08:07:43.179Z,48.15
2022-09-06T08:10:50.544Z,48.36
2022-09-06T08:13:55.028Z,48.29
2022-09-06T08:16:58.078Z,47.66
2022-09-06T08:20:00.522Z,46.58
2022-09-06T08:23:08.934Z,45.17
2022-09-06T08:26:11.605Z,45.49
2022-09-06T08:29:14.286Z,44.68
2022-09-06T08:32:18.789Z,44.92
2022-09-06T08:35:21.326Z,44.43
2022-09-06T08:38:24.206Z,43.88
2022-09-06T08:41:27.557Z,44.34
2022-09-06T08:47:57.263Z,44.33
2022-09-06T08:51:03.699Z,43.71
2022-09-06T08:54:11.046Z,43.18
2022-09-06T08:57:20.867Z,44.11
2022-09-06T09:00:23.567Z,43.01
2022-09-06T09:03:31.055Z,42.62
2022-09-06T09:06:34.433Z,42.76
2022-09-06T09:09:37.086Z,42.65
2022-09-06T09:12:43.986Z,42.24
2022-09-06T09:15:46.627Z,41.61
2022-09-06T09:18:51.141Z,39.46
2022-09-06T09:21:54.229Z,39.93
2022-09-06T09:24:58.897Z,40.21
2022-09-06T09:28:02.206Z,40.94
2022-09-06T09:31:07.166Z,40.60
2022-09-06T09:34:13.701Z,39.44
2022-09-06T09:40:49.313Z,38.11
2022-09-06T09:43:59.194Z,37.99
2022-09-06T09:47:21.935Z,37.41
2022-09-06T09:50:27.150Z,36.25
2022-09-06T09:53:29.734Z,36.25
2022-09-06T09:56:37.592Z,36.23
2022-09-06T09:59:42.874Z,34.85
2022-09-06T10:02:45.526Z,34.54
2022-09-06T10:06:02.048Z,32.04
2022-09-06T10:09:29.459Z,32.33
2022-09-06T10:12:32.874Z,32.60
2022-09-06T10:15:36.363Z,32.36
2022-09-06T10:18:40.332Z,32.07
2022-09-06T10:21:42.909Z,31.97
2022-09-06T10:24:51.650Z,30.55
2022-09-06T10:28:12.647Z,30.58
2022-09-06T10:31:25.624Z,30.62
2022-09-06T10:34:43.642Z,30.15
2022-09-06T10:37:50.600Z,29.09
2022-09-06T10:40:58.312Z,30.16
2022-09-06T10:44:06.211Z,29.02
2022-09-06T10:47:10.987Z,29.50
2022-09-06T10:50:14.399Z,29.88
2022-09-06T10:53:24.626Z,30.33
2022-09-06T10:56:31.531Z,29.66
2022-09-06T10:59:36.595Z,29.86
2022-09-06T11:02:43.985Z,29.28
2022-09-06T11:05:49.374Z,29.45
2022-09-06T11:08:58.100Z,28.05
2022-09-06T11:12:06.977Z,28.51
2022-09-06T11:15:11.667Z,29.13
2022-09-06T11:18:18.176Z,28.14
2022-09-06T11:21:35.199Z,28.22
2022-09-06T11:24:47.868Z,26.31
2022-09-06T11:27:57.305Z,27.21
2022-09-06T11:31:01.231Z,27.41
2022-09-06T11:34:06.103Z,27.27
2022-09-06T11:37:21.506Z,27.61
2022-09-06T11:40:27.518Z,27.36
2022-09-06T11:43:45.715Z,27.07
2022-09-06T11:46:58.840Z,27.23
2022-09-06T11:50:17.802Z,26.68
2022-09-06T11:53:21.104Z,25.67
2022-09-06T11:56:28.254Z,25.84
2022-09-06T11:59:35.469Z,26.44
2022-09-06T12:02:41.221Z,25.69
2022-09-06T12:05:58.753Z,25.21
2022-09-06T12:09:02.213Z,25.46
2022-09-06T12:12:05.825Z,25.97
2022-09-06T12:15:25.797Z,25.38
2022-09-06T12:18:52.084Z,26.67
2022-09-06T12:21:54.791Z,26.16
2022-09-06T12:24:59.183Z,26.68
2022-09-06T12:28:02.716Z,26.67
2022-09-06T12:31:23.278Z,27.12
2022-09-06T12:34:28.447Z,27.30
2022-09-06T12:37:36.737Z,26.76
2022-09-06T12:40:40.966Z,26.90
2022-09-06T12:43:43.768Z,27.04
2022-09-06T12:46:47.692Z,26.17
2022-09-06T12:50:04.653Z,26.97
2022-09-06T12:53:23.392Z,26.46
2022-09-06T12:56:27.548Z,26.64
2022-09-06T12:59:31.863Z,26.46
2022-09-06T13:02:37.284Z,26.71
2022-09-06T13:05:40.702Z,27.71
2022-09-06T13:08:47.002Z,27.62
2022-09-06T13:11:50.770Z,27.29
2022-09-06T13:14:54.761Z,27.19
2022-09-06T13:18:11.611Z,27.59
2022-09-06T13:21:23.820Z,27.88
2022-09-06T13:24:27.869Z,28.18
2022-09-06T13:27:35.007Z,28.34
2022-09-06T13:30:41.237Z,28.11
2022-09-06T13:33:44.662Z,28.03
2022-09-06T13:36:49.311Z,27.68
2022-09-06T13:39:52.382Z,28.32
2022-09-06T13:43:00.265Z,28.41
2022-09-06T13:46:06.792Z,27.77
2022-09-06T13:49:09.355Z,28.05
2022-09-06T13:52:12.061Z,27.96
2022-09-06T13:55:16.016Z,27.68
2022-09-06T13:58:18.652Z,28.42
2022-09-06T14:01:21.330Z,28.30
2022-09-06T14:04:24.871Z,28.60
2022-09-06T14:07:27.586Z,28.12
2022-09-06T14:10:30.166Z,28.53
2022-09-06T14:13:32.735Z,28.60
2022-09-06T14:16:35.525Z,28.71
2022-09-06T14:19:39.967Z,28.43
2022-09-06T14:22:42.582Z,28.85
2022-09-06T14:25:45.117Z,28.33
2022-09-06T14:28:47.847Z,29.33
2022-09-06T14:31:50.419Z,29.28
2022-09-06T14:34:53.054Z,29.14
2022-09-06T14:37:55.609Z,29.53
2022-09-06T14:41:03.276Z,29.88
2022-09-06T14:44:05.855Z,29.99
2022-09-06T14:47:08.465Z,29.75
2022-09-06T14:50:11.274Z,29.90
2022-09-06T14:53:38.802Z,29.79
2022-09-06T14:56:39.972Z,29.99
2022-09-06T14:59:42.622Z,30.64
2022-09-06T15:02:45.296Z,30.56
2022-09-06T15:05:48.395Z,30.24
2022-09-06T15:08:52.839Z,30.55
2022-09-06T15:11:58.403Z,30.61
2022-09-06T15:15:02.262Z,31.12
2022-09-06T15:18:04.991Z,30.75
2022-09-06T15:21:11.123Z,30.88
2022-09-06T15:24:14.097Z,31.40
2022-09-06T15:27:16.795Z,30.93
2022-09-06T15:30:19.409Z,30.77
2022-09-06T15:33:22.078Z,31.28
2022-09-06T15:36:24.872Z,31.45
2022-09-06T15:39:27.566Z,31.57
2022-09-06T15:42:30.346Z,31.62
2022-09-06T15:45:46.653Z,31.87
2022-09-06T15:48:50.509Z,31.79
2022-09-06T15:51:53.479Z,32.15
2022-09-06T15:55:14.898Z,32.25
2022-09-06T15:58:17.704Z,32.13
2022-09-06T16:01:21.161Z,32.08
2022-09-06T16:04:23.891Z,32.48
2022-09-06T16:07:27.090Z,32.78
2022-09-06T16:10:29.779Z,33.34
2022-09-06T16:13:33.260Z,33.55
2022-09-06T16:16:36.616Z,33.47
2022-09-06T16:19:39.642Z,33.93
2022-09-06T16:22:42.224Z,33.98
2022-09-06T16:25:47.371Z,33.77
2022-09-06T16:28:51.122Z,34.20
2022-09-06T16:31:59.041Z,34.85
2022-09-06T16:35:03.258Z,34.89
2022-09-06T16:38:09.089Z,34.84
2022-09-06T16:41:13.765Z,35.38
2022-09-06T16:44:17.540Z,35.63
2022-09-06T16:47:20.372Z,35.92
2022-09-06T16:50:22.953Z,36.20
2022-09-06T16:53:25.635Z,36.59
2022-09-06T16:56:31.188Z,36.61
2022-09-06T16:59:33.770Z,37.36
2022-09-06T17:02:36.513Z,37.68
2022-09-06T17:05:39.434Z,37.81
2022-09-06T17:08:42.127Z,38.29
2022-09-06T17:11:45.834Z,38.69
2022-09-06T17:14:48.670Z,39.15
2022-09-06T17:17:51.237Z,39.79
2022-09-06T17:20:57.529Z,40.14
2022-09-06T17:24:02.422Z,40.49
2022-09-06T17:27:05.319Z,40.58
2022-09-06T17:30:09.665Z,40.83
2022-09-06T17:33:12.870Z,41.05
2022-09-06T17:36:17.063Z,41.63
2022-09-06T17:39:20.457Z,41.69
2022-09-06T17:42:24.144Z,42.21
2022-09-06T17:45:26.864Z,41.83
2022-09-06T17:48:30.382Z,42.44
2022-09-06T17:51:33.601Z,43.19
2022-09-06T17:54:36.775Z,43.23
2022-09-06T17:57:39.531Z,43.00
2022-09-06T18:00:42.218Z,43.95
2022-09-06T18:03:45.628Z,43.09
2022-09-06T18:06:48.249Z,43.39
2022-09-06T18:09:51.164Z,43.28
2022-09-06T18:12:53.939Z,44.46
2022-09-06T18:15:56.569Z,44.33
2022-09-06T18:19:00.201Z,45.00
2022-09-06T18:22:04.022Z,44.68
2022-09-06T18:25:08.352Z,45.45
2022-09-06T18:28:11.050Z,46.27
2022-09-06T18:31:14.534Z,45.88
2022-09-06T18:34:17.985Z,46.20
2022-09-06T18:37:20.702Z,46.86
2022-09-06T18:40:23.345Z,47.05
2022-09-06T18:43:28.906Z,46.85
2022-09-06T18:46:32.561Z,46.79
2022-09-06T18:49:35.558Z,47.07
2022-09-06T18:52:38.163Z,48.01
2022-09-06T18:55:42.086Z,48.20
2022-09-06T18:58:44.780Z,48.67
2022-09-06T19:01:47.525Z,48.33
2022-09-06T19:04:53.550Z,48.87
2022-09-06T19:07:56.266Z,48.46
2022-09-06T19:11:00.771Z,48.86
2022-09-06T19:14:04.171Z,49.81
2022-09-06T19:17:07.008Z,49.61
2022-09-06T19:20:10.223Z,49.56
2022-09-06T19:23:12.819Z,49.49
2022-09-06T19:26:17.217Z,49.87
2022-09-06T19:29:19.862Z,49.92
2022-09-06T19:32:22.487Z,49.86
2022-09-06T19:35:25.045Z,49.68
2022-09-06T19:38:27.899Z,49.61
2022-09-06T19:41:36.032Z,50.17
2022-09-06T19:44:38.759Z,49.50
2022-09-06T19:47:41.349Z,50.09
2022-09-06T19:50:43.992Z,49.71
2022-09-06T19:53:49.349Z,50.11
2022-09-06T19:56:52.283Z,50.43
2022-09-06T19:59:55.004Z,51.15
2022-09-06T20:02:57.641Z,50.83
2022-09-06T20:06:01.186Z,51.69
2022-09-06T20:09:05.749Z,51.72
2022-09-06T20:12:08.975Z,51.19
2022-09-06T20:15:11.760Z,52.13
2022-09-06T20:18:14.685Z,51.71
2022-09-06T20:21:17.891Z,52.19
2022-09-06T20:24:20.781Z,52.93
2022-09-06T20:27:23.490Z,52.75
2022-09-06T20:30:26.274Z,52.29
2022-09-06T20:33:29.436Z,53.03
2022-09-06T20:36:32.537Z,52.66
2022-09-06T20:39:35.269Z,53.26
2022-09-06T20:42:41.634Z,53.50
2022-09-06T20:45:46.217Z,52.66
2022-09-06T20:48:49.545Z,53.50
2022-09-06T20:51:52.225Z,53.39
2022-09-06T20:54:54.935Z,53.92
2022-09-06T20:57:57.644Z,54.44
2022-09-06T21:01:05.345Z,54.14
2022-09-06T21:04:09.120Z,54.03
2022-09-06T21:07:11.755Z,54.30
2022-09-06T21:10:14.564Z,54.71
2022-09-06T21:13:17.389Z,54.50
2022-09-06T21:16:24.676Z,54.47
2022-09-06T21:19:27.778Z,55.07
2022-09-06T21:22:30.512Z,55.39
2022-09-06T21:25:33.211Z,55.29
2022-09-06T21:28:37.008Z,56.26
2022-09-06T21:31:40.298Z,56.11
2022-09-06T21:34:42.928Z,55.84
2022-09-06T21:37:45.661Z,56.37
2022-09-06T21:40:48.374Z,56.12
2022-09-06T21:43:52.557Z,56.15
2022-09-06T21:46:56.053Z,57.05
2022-09-06T21:49:58.819Z,57.52
2022-09-06T21:53:01.533Z,56.41
2022-09-06T21:56:04.831Z,57.67
2022-09-06T21:59:08.030Z,58.12
2022-09-06T22:02:11.239Z,57.49
2022-09-06T22:05:14.513Z,57.88
2022-09-06T22:08:17.745Z,58.34
2022-09-06T22:11:21.847Z,58.48
2022-09-06T22:14:24.579Z,58.83
2022-09-06T22:17:27.282Z,58.71
2022-09-06T22:20:29.959Z,58.11
2022-09-06T22:23:33.105Z,58.71
2022-09-06T22:26:37.031Z,58.75
2022-09-06T22:29:40.174Z,59.12
2022-09-06T22:32:42.875Z,59.01
2022-09-06T22:35:45.424Z,60.09
2022-09-06T22:38:47.957Z,60.54
2022-09-06T22:41:50.580Z,60.60
2022-09-06T22:44:53.458Z,59.97
2022-09-06T22:47:56.132Z,60.46
2022-09-06T22:50:58.776Z,60.41
2022-09-06T22:54:01.828Z,61.00
2022-09-06T22:57:04.508Z,60.90
2022-09-06T23:00:08.580Z,61.00
2022-09-06T23:03:11.585Z,61.27
2022-09-06T23:06:14.467Z,61.76
2022-09-06T23:09:17.199Z,61.50
2022-09-06T23:12:19.884Z,62.10
2022-09-06T23:15:22.646Z,61.42
2022-09-06T23:18:25.665Z,62.22
2022-09-06T23:21:28.224Z,62.26
2022-09-06T23:24:30.932Z,61.92
2022-09-06T23:27:33.648Z,62.41
2022-09-06T23:30:37.324Z,62.02
2022-09-06T23:33:41.158Z,62.34
2022-09-06T23:36:44.686Z,62.05
2022-09-06T23:39:47.491Z,62.17
2022-09-06T23:42:50.123Z,62.41
2022-09-06T23:45:52.787Z,62.99
2022-09-06T23:48:55.355Z,62.32
2022-09-06T23:51:57.933Z,62.55
2022-09-06T23:55:00.568Z,62.47
2022-09-06T23:58:03.148Z,62.86
